Strongsville, Ohio
Current Conditions -  °F | °C
As of 9:51 AM on Friday 31 Oct 2014 (Local Time) from KCLE Reporting Station
Light Rain Light Rain  
Wind Chill: 40°   Ceiling: 4700
Heat Index: 44°   Visibility: 10mi
Dew Point: 37°   Wind: 7mph
Humidity: 76%   Direction: 190°S
Pressure: 29.95"   Gusts: NA
Location:  41.31°N, 81.83°W
Report Text: KCLE 311351Z 19006KT 10SM -RA BKN047 OVC060 07/03 A2995 RMK AO2 RAB02 SLP144 P0000 T00670028 $
Loading
Personal Weather Stations






























Interactive Weather Map
Tropical Storm Tracking
New forecast layout! Learn more

10-Day Weather Forecast

Advertisements
Track Severe Weather on mobile